createdAt,value
2023-01-23T02:52:53.858Z,4.80
2023-01-23T02:53:24.549Z,5.50
2023-01-23T02:53:55.200Z,6.10
2023-01-23T02:54:25.771Z,7.10
2023-01-23T02:54:56.260Z,6.50
2023-01-23T02:55:27.277Z,6.90
2023-01-23T02:55:57.731Z,7.30
2023-01-23T02:56:28.676Z,7.30
2023-01-23T02:56:59.813Z,7.50
2023-01-23T02:57:30.325Z,7.00
2023-01-23T02:58:00.784Z,6.60
2023-01-23T02:58:31.822Z,6.80
2023-01-23T02:59:02.338Z,7.00
2023-01-23T02:59:32.797Z,6.40
2023-01-23T03:00:03.911Z,6.10
2023-01-23T03:00:34.432Z,6.60
2023-01-23T03:01:04.904Z,7.10
2023-01-23T03:01:35.472Z,6.30
2023-01-23T03:02:06.100Z,6.70
2023-01-23T03:02:36.720Z,6.60
2023-01-23T03:03:07.416Z,6.80
2023-01-23T03:03:37.903Z,6.50
2023-01-23T03:04:08.852Z,7.00
2023-01-23T03:04:39.795Z,6.20
2023-01-23T03:05:10.717Z,6.50
2023-01-23T03:05:41.711Z,5.90
2023-01-23T03:06:12.423Z,6.60
2023-01-23T03:06:42.975Z,6.20
2023-01-23T03:07:13.496Z,5.90
2023-01-23T03:07:43.945Z,6.50
2023-01-23T03:08:15.072Z,5.70
2023-01-23T03:08:45.592Z,6.70
2023-01-23T03:09:16.225Z,6.30
2023-01-23T03:09:46.737Z,6.20
2023-01-23T03:10:17.378Z,6.90
2023-01-23T03:10:48.197Z,6.60
2023-01-23T03:11:18.652Z,6.40
2023-01-23T03:11:49.147Z,6.30
2023-01-23T03:12:20.278Z,6.50
2023-01-23T03:12:50.793Z,6.70
2023-01-23T03:13:21.811Z,6.20
2023-01-23T03:13:52.250Z,6.80
2023-01-23T03:14:23.227Z,7.30
2023-01-23T03:14:54.177Z,6.30
2023-01-23T03:15:25.392Z,7.20
2023-01-23T03:15:55.917Z,7.40
2023-01-23T03:16:26.586Z,6.50
2023-01-23T03:16:57.045Z,6.60
2023-01-23T03:17:28.053Z,6.20
2023-01-23T03:17:58.522Z,6.50
2023-01-23T03:18:29.694Z,6.30
2023-01-23T03:19:00.124Z,6.50
2023-01-23T03:19:31.063Z,8.00
2023-01-23T03:20:02.018Z,7.40
2023-01-23T03:20:33.024Z,6.50
2023-01-23T03:21:03.456Z,7.20
2023-01-23T03:21:34.586Z,6.70
2023-01-23T03:22:05.080Z,6.40
2023-01-23T03:22:36.268Z,6.70
2023-01-23T03:23:06.713Z,6.70
2023-01-23T03:23:37.857Z,6.70
2023-01-23T03:24:08.291Z,7.30
2023-01-23T03:24:39.430Z,6.60
2023-01-23T03:25:09.954Z,6.50
2023-01-23T03:25:40.499Z,6.70
2023-01-23T03:26:10.979Z,7.20
2023-01-23T03:26:41.551Z,6.20
2023-01-23T03:27:11.974Z,7.40
2023-01-23T03:27:43.139Z,6.80
2023-01-23T03:28:13.677Z,6.90
2023-01-23T03:28:44.190Z,6.50
2023-01-23T03:29:14.705Z,7.40
2023-01-23T03:29:45.246Z,5.90
2023-01-23T03:30:15.738Z,6.10
2023-01-23T03:30:46.422Z,6.70
2023-01-23T03:31:17.000Z,6.90
2023-01-23T03:31:47.565Z,6.50
2023-01-23T03:32:18.056Z,7.20
2023-01-23T03:32:49.071Z,6.60
2023-01-23T03:33:20.011Z,6.70
2023-01-23T03:33:51.207Z,6.30
2023-01-23T03:34:21.639Z,6.00
2023-01-23T03:34:52.648Z,6.70
2023-01-23T03:35:23.614Z,6.50
2023-01-23T03:35:54.574Z,7.10
2023-01-23T03:36:25.529Z,7.00
2023-01-23T03:36:56.710Z,7.20
2023-01-23T03:37:27.231Z,6.30
2023-01-23T03:37:57.742Z,6.30
2023-01-23T03:38:28.222Z,6.90
2023-01-23T03:38:59.314Z,6.90
2023-01-23T03:39:30.091Z,6.10
2023-01-23T03:40:44.667Z,5.90
2023-01-23T03:41:12.690Z,6.40
2023-01-23T03:41:43.163Z,6.80
2023-01-23T03:42:14.066Z,6.60
2023-01-23T03:42:45.028Z,6.80
2023-01-23T03:43:57.262Z,6.20
2023-01-23T03:44:27.795Z,6.40
2023-01-23T03:44:58.256Z,6.70
2023-01-23T03:45:29.282Z,6.40
2023-01-23T03:45:59.865Z,6.00
2023-01-23T03:46:30.392Z,6.30
2023-01-23T03:47:01.539Z,6.60
2023-01-23T03:47:32.049Z,7.10
2023-01-23T03:48:03.036Z,6.60
2023-01-23T03:48:33.984Z,6.80
2023-01-23T03:49:47.249Z,6.40
2023-01-23T03:50:16.886Z,6.10
2023-01-23T03:50:47.471Z,6.50
2023-01-23T03:51:17.963Z,6.30
2023-01-23T03:51:48.715Z,6.30
2023-01-23T03:52:19.265Z,6.20
2023-01-23T03:52:49.772Z,6.20
2023-01-23T03:53:20.891Z,6.40
2023-01-23T03:53:51.418Z,6.10
2023-01-23T03:54:22.067Z,6.20
2023-01-23T03:54:52.597Z,6.30
2023-01-23T03:55:23.042Z,6.40
2023-01-23T03:55:53.997Z,6.20
2023-01-23T03:56:25.112Z,5.90
2023-01-23T03:56:55.635Z,5.30
2023-01-23T03:57:26.375Z,6.30
2023-01-23T03:57:56.899Z,6.60
2023-01-23T03:58:27.429Z,6.00
2023-01-23T03:58:57.888Z,7.00
2023-01-23T03:59:29.034Z,6.30
2023-01-23T03:59:59.565Z,6.40
2023-01-23T04:00:30.005Z,6.20
2023-01-23T04:01:00.979Z,5.40
2023-01-23T04:01:31.922Z,7.10
2023-01-23T04:02:02.828Z,5.80
2023-01-23T04:02:34.288Z,5.80
2023-01-23T04:03:04.613Z,5.70
2023-01-23T04:03:35.174Z,6.20
2023-01-23T04:04:05.672Z,5.30
2023-01-23T04:04:36.643Z,6.40
2023-01-23T04:05:07.652Z,6.30
2023-01-23T04:05:38.277Z,5.60
2023-01-23T04:06:08.808Z,5.90
2023-01-23T04:06:39.330Z,6.10
2023-01-23T04:07:09.796Z,5.90
2023-01-23T04:07:40.772Z,5.90
2023-01-23T04:08:11.737Z,5.60
2023-01-23T04:08:42.941Z,6.10
2023-01-23T04:09:13.462Z,6.40
2023-01-23T04:09:44.172Z,5.60
2023-01-23T04:10:14.910Z,6.30
2023-01-23T04:10:45.369Z,5.40
2023-01-23T04:11:16.402Z,5.60
2023-01-23T04:11:47.073Z,5.80
2023-01-23T04:12:17.558Z,6.80
2023-01-23T04:12:48.576Z,6.20
2023-01-23T04:13:19.035Z,5.60
2023-01-23T04:13:50.000Z,6.80
2023-01-23T04:14:20.946Z,5.20
2023-01-23T04:14:52.085Z,5.90
2023-01-23T04:15:22.643Z,6.20
2023-01-23T04:15:53.086Z,6.00
2023-01-23T04:16:24.077Z,6.60
2023-01-23T04:16:54.671Z,5.90
2023-01-23T04:17:25.177Z,6.30
2023-01-23T04:17:56.316Z,5.10
2023-01-23T04:18:26.839Z,5.40
2023-01-23T04:18:57.323Z,5.40
2023-01-23T04:19:28.262Z,5.90
2023-01-23T04:19:59.296Z,6.30
2023-01-23T04:20:29.774Z,5.80
2023-01-23T04:21:00.911Z,6.00
2023-01-23T04:21:31.456Z,5.90
2023-01-23T04:22:01.975Z,6.30
2023-01-23T04:22:32.918Z,6.80
2023-01-23T04:23:03.900Z,6.30
2023-01-23T04:23:34.852Z,6.30
2023-01-23T04:24:06.361Z,5.70
2023-01-23T04:24:36.367Z,6.20
2023-01-23T04:25:06.929Z,5.60
2023-01-23T04:25:37.396Z,5.60
2023-01-23T04:26:08.345Z,6.20
2023-01-23T04:26:39.273Z,6.50
2023-01-23T04:27:10.406Z,5.90
2023-01-23T04:27:40.922Z,5.80
2023-01-23T04:28:11.416Z,6.00
2023-01-23T04:28:41.937Z,5.40
2023-01-23T04:29:12.499Z,5.90
2023-01-23T04:29:42.939Z,5.70
2023-01-23T04:30:14.094Z,6.80
2023-01-23T04:30:44.806Z,5.30
2023-01-23T04:31:15.560Z,6.00
2023-01-23T04:31:46.167Z,5.70
2023-01-23T04:32:16.758Z,5.90
2023-01-23T04:32:47.764Z,6.30
2023-01-23T04:33:18.402Z,6.20
2023-01-23T04:33:48.923Z,5.70
2023-01-23T04:34:19.441Z,6.50
2023-01-23T04:34:49.972Z,5.90
2023-01-23T04:35:20.435Z,5.50
2023-01-23T04:35:51.459Z,6.00
2023-01-23T04:36:22.094Z,5.30
2023-01-23T04:36:52.641Z,6.00
2023-01-23T04:37:23.150Z,6.00
2023-01-23T04:37:54.088Z,6.50
2023-01-23T04:38:25.031Z,6.10
2023-01-23T04:38:55.953Z,5.90
2023-01-23T04:39:27.092Z,5.30
2023-01-23T04:39:57.643Z,5.80
2023-01-23T04:40:28.310Z,5.80
2023-01-23T04:40:58.847Z,6.40
2023-01-23T04:41:29.298Z,5.60
2023-01-23T04:42:00.240Z,5.90
2023-01-23T04:42:31.399Z,6.50
2023-01-23T04:43:01.919Z,5.90
2023-01-23T04:43:32.377Z,6.70
2023-01-23T04:44:03.317Z,6.10
2023-01-23T04:44:34.267Z,5.60
2023-01-23T04:45:05.246Z,5.50
2023-01-23T04:45:36.003Z,5.60
2023-01-23T04:46:06.554Z,6.00
2023-01-23T04:46:37.049Z,5.90
2023-01-23T04:47:07.998Z,5.80
2023-01-23T04:47:38.965Z,6.00
2023-01-23T04:48:09.909Z,6.20
2023-01-23T04:48:41.123Z,6.70
2023-01-23T04:49:11.645Z,6.10
2023-01-23T04:49:42.094Z,6.80
2023-01-23T04:50:13.074Z,5.70
2023-01-23T04:50:44.027Z,6.50
2023-01-23T04:51:15.005Z,6.30
2023-01-23T04:51:46.147Z,6.10
2023-01-23T04:52:16.691Z,5.80
2023-01-23T04:52:47.366Z,5.70
2023-01-23T04:53:17.919Z,6.00
2023-01-23T04:53:48.376Z,6.90
2023-01-23T04:54:19.402Z,7.30
2023-01-23T04:54:50.068Z,5.50
2023-01-23T04:55:20.581Z,5.10
2023-01-23T04:55:51.309Z,5.70
2023-01-23T04:56:21.842Z,6.40
2023-01-23T04:56:54.290Z,6.00
2023-01-23T04:57:23.253Z,6.30
2023-01-23T04:57:54.396Z,6.90
2023-01-23T04:58:24.919Z,6.80
2023-01-23T04:58:55.363Z,6.00
2023-01-23T04:59:26.325Z,6.50
2023-01-23T04:59:58.894Z,7.10
2023-01-23T05:00:27.753Z,6.40
2023-01-23T05:00:58.915Z,6.00
2023-01-23T05:01:29.509Z,6.50
2023-01-23T05:01:59.953Z,6.60
2023-01-23T05:02:31.019Z,6.10
2023-01-23T05:03:01.487Z,6.60
2023-01-23T05:03:31.994Z,6.50
2023-01-23T05:04:03.137Z,6.00
2023-01-23T05:04:33.678Z,6.60
2023-01-23T05:05:04.186Z,6.40
2023-01-23T05:05:35.141Z,6.70
2023-01-23T05:06:06.030Z,6.20
2023-01-23T05:06:37.092Z,6.30
2023-01-23T05:07:08.252Z,7.00
2023-01-23T05:07:38.777Z,5.90
2023-01-23T05:08:09.223Z,6.60
2023-01-23T05:08:40.241Z,6.60
2023-01-23T05:09:10.733Z,6.40
2023-01-23T05:09:41.253Z,6.70
2023-01-23T05:10:11.985Z,5.70
2023-01-23T05:10:42.503Z,7.20
2023-01-23T05:11:13.028Z,6.20
2023-01-23T05:11:43.555Z,6.90
2023-01-23T05:12:14.038Z,6.50
2023-01-23T05:12:44.985Z,7.10
2023-01-23T05:13:58.967Z,6.00
2023-01-23T05:14:27.983Z,6.80
2023-01-23T05:14:58.418Z,6.50
2023-01-23T05:15:30.844Z,7.10
2023-01-23T05:15:59.977Z,6.50
2023-01-23T05:16:30.714Z,6.50
2023-01-23T05:17:01.216Z,6.30
2023-01-23T05:17:32.134Z,6.80
2023-01-23T05:18:03.110Z,6.20
2023-01-23T05:18:33.636Z,7.30
2023-01-23T05:19:04.134Z,5.40
2023-01-23T05:19:34.854Z,6.10
2023-01-23T05:20:05.372Z,6.30
2023-01-23T05:20:35.935Z,6.10
2023-01-23T05:21:06.406Z,6.40
2023-01-23T05:21:37.412Z,7.10
2023-01-23T05:22:07.883Z,6.30
2023-01-23T05:22:39.030Z,6.30
2023-01-23T05:23:09.598Z,6.60
2023-01-23T05:23:40.137Z,6.50
2023-01-23T05:24:10.616Z,6.70
2023-01-23T05:24:41.549Z,6.00
2023-01-23T05:25:12.527Z,6.30
2023-01-23T05:25:43.680Z,5.90
2023-01-23T05:26:14.197Z,6.50
2023-01-23T05:26:44.847Z,7.30
2023-01-23T05:27:15.681Z,6.60
2023-01-23T05:27:46.127Z,6.40
2023-01-23T05:28:58.361Z,6.10
2023-01-23T05:29:28.878Z,6.00
2023-01-23T05:29:59.830Z,6.20
2023-01-23T05:30:30.912Z,5.90
2023-01-23T05:31:01.593Z,6.30
2023-01-23T05:31:32.667Z,6.50
2023-01-23T05:32:03.572Z,6.60
2023-01-23T05:32:34.132Z,5.50
2023-01-23T05:33:04.598Z,7.00
2023-01-23T05:33:35.535Z,6.50
2023-01-23T05:34:06.531Z,5.90
2023-01-23T05:34:37.069Z,5.90
2023-01-23T05:35:07.702Z,6.40
2023-01-23T05:35:38.198Z,6.00
2023-01-23T05:36:09.157Z,6.20
2023-01-23T05:36:40.140Z,6.60
2023-01-23T05:37:11.099Z,6.10
2023-01-23T05:37:42.070Z,6.60
2023-01-23T05:38:13.214Z,5.50
2023-01-23T05:38:43.747Z,5.50
2023-01-23T05:39:14.203Z,6.50
2023-01-23T05:39:45.247Z,6.20
2023-01-23T05:40:15.706Z,6.40
2023-01-23T05:40:46.643Z,6.70
2023-01-23T05:41:17.775Z,6.50
2023-01-23T05:41:48.438Z,6.50
2023-01-23T05:42:18.946Z,6.10
2023-01-23T05:42:49.482Z,6.20
2023-01-23T05:43:19.939Z,6.30
2023-01-23T05:43:50.884Z,6.10
2023-01-23T05:44:22.107Z,6.70
2023-01-23T05:44:52.668Z,5.90
2023-01-23T05:45:23.143Z,6.40
2023-01-23T05:45:54.139Z,6.50
2023-01-23T05:46:24.656Z,6.10
2023-01-23T05:46:55.184Z,6.10
2023-01-23T05:47:25.841Z,5.80
2023-01-23T05:47:56.327Z,6.30
2023-01-23T05:48:26.893Z,6.10
2023-01-23T05:48:57.872Z,6.60
2023-01-23T05:49:28.406Z,6.60
2023-01-23T05:49:58.861Z,6.50
2023-01-23T05:50:30.019Z,6.00
2023-01-23T05:51:00.559Z,6.40
2023-01-23T05:51:31.048Z,5.80
2023-01-23T05:52:01.586Z,5.80
2023-01-23T05:52:32.056Z,5.80
2023-01-23T05:53:03.042Z,5.80
2023-01-23T05:53:34.183Z,5.60
2023-01-23T05:56:48.727Z,5.30
2023-01-23T05:57:19.952Z,6.20
2023-01-23T05:57:50.481Z,6.00
2023-01-23T05:58:21.017Z,5.90
2023-01-23T05:58:51.542Z,5.90
2023-01-23T05:59:21.985Z,6.40
2023-01-23T05:59:53.023Z,6.10
2023-01-23T06:00:23.692Z,5.50
2023-01-23T06:00:54.232Z,6.60
2023-01-23T06:01:24.693Z,6.10
2023-01-23T06:01:55.693Z,6.40
2023-01-23T06:02:26.207Z,5.60
2023-01-23T06:02:56.819Z,6.10
2023-01-23T06:03:27.640Z,6.00
2023-01-23T06:03:58.146Z,5.60
2023-01-23T06:04:29.094Z,5.80
2023-01-23T06:05:00.044Z,5.70
2023-01-23T06:05:31.073Z,5.70
2023-01-23T06:06:01.589Z,6.90
2023-01-23T06:06:32.313Z,5.80
2023-01-23T06:07:02.890Z,6.40
2023-01-23T06:07:33.444Z,6.00
2023-01-23T06:08:03.990Z,5.50
2023-01-23T06:08:34.505Z,6.50
2023-01-23T06:10:27.090Z,5.60
2023-01-23T06:10:57.607Z,5.90
2023-01-23T06:11:28.564Z,5.20
2023-01-23T06:11:59.610Z,5.90
2023-01-23T06:12:30.268Z,5.60
2023-01-23T06:13:00.945Z,5.40
2023-01-23T06:13:31.471Z,5.60
2023-01-23T06:14:01.997Z,5.70
2023-01-23T06:14:32.530Z,5.70
2023-01-23T06:15:03.081Z,5.20
2023-01-23T06:15:33.577Z,6.00
2023-01-23T06:16:04.419Z,5.70
2023-01-23T06:16:34.966Z,5.80
2023-01-23T06:17:05.414Z,5.20
2023-01-23T06:17:36.455Z,5.10
2023-01-23T06:18:07.096Z,5.70
2023-01-23T06:18:37.597Z,5.30
2023-01-23T06:19:08.821Z,5.30
2023-01-23T06:19:39.374Z,5.70
2023-01-23T06:20:09.904Z,6.20
2023-01-23T06:20:40.423Z,5.50
2023-01-23T06:21:10.890Z,6.40
2023-01-23T06:21:41.836Z,5.00
2023-01-23T06:22:13.088Z,5.80
2023-01-23T06:22:43.599Z,5.40
2023-01-23T06:23:14.516Z,5.70
2023-01-23T06:23:45.488Z,5.60
2023-01-23T06:24:16.503Z,6.30
2023-01-23T06:24:47.028Z,5.70
2023-01-23T06:25:17.704Z,4.80
2023-01-23T06:25:48.245Z,5.40
2023-01-23T06:26:19.063Z,5.20
2023-01-23T06:26:49.577Z,5.00
2023-01-23T06:27:20.123Z,5.80
2023-01-23T06:27:50.733Z,5.50
2023-01-23T06:28:21.476Z,5.40
2023-01-23T06:28:52.041Z,5.90
2023-01-23T06:36:02.831Z,6.00
2023-01-23T06:36:33.346Z,5.10
2023-01-23T06:37:04.081Z,5.10
2023-01-23T06:37:34.626Z,5.60
2023-01-23T06:38:05.154Z,5.00
2023-01-23T06:39:57.675Z,4.80
2023-01-23T06:40:28.387Z,5.00
2023-01-23T06:40:58.916Z,5.60
2023-01-23T06:41:29.492Z,4.90
2023-01-23T06:43:22.206Z,5.00
2023-01-23T06:43:52.680Z,5.40
2023-01-23T06:44:23.643Z,4.90
2023-01-23T06:44:54.886Z,5.20
2023-01-23T06:45:25.402Z,5.00
2023-01-23T06:45:55.947Z,4.40
2023-01-23T06:46:26.557Z,5.20
2023-01-23T06:46:57.119Z,5.70
2023-01-23T06:47:27.654Z,4.70
2023-01-23T06:47:58.306Z,5.10
2023-01-23T06:48:28.877Z,5.00
2023-01-23T06:48:59.337Z,4.30
2023-01-23T06:49:30.305Z,5.80
2023-01-23T06:50:00.824Z,5.50
2023-01-23T06:50:31.759Z,4.60
2023-01-23T06:51:03.038Z,5.30
2023-01-23T06:51:33.603Z,4.90
2023-01-23T06:52:04.079Z,5.10
2023-01-23T06:52:35.061Z,5.10
2023-01-23T06:55:09.014Z,4.90
2023-01-23T06:55:39.935Z,5.10
2023-01-23T06:56:10.849Z,4.90
2023-01-23T06:56:41.834Z,4.30
2023-01-23T06:57:12.814Z,4.90
2023-01-23T06:57:44.018Z,4.70
2023-01-23T06:58:14.500Z,4.80
2023-01-23T06:58:45.544Z,4.60
2023-01-23T06:59:16.328Z,4.50
2023-01-23T06:59:47.308Z,4.80
2023-01-23T07:00:18.595Z,4.90
2023-01-23T07:00:49.405Z,4.80
2023-01-23T07:01:19.904Z,5.10
2023-01-23T07:01:50.395Z,4.80
2023-01-23T07:02:21.404Z,4.80
2023-01-23T07:02:51.898Z,5.20
2023-01-23T07:03:22.428Z,5.20
2023-01-23T07:03:53.551Z,4.70
2023-01-23T07:04:24.049Z,4.10
2023-01-23T07:04:54.523Z,4.60
2023-01-23T07:05:25.440Z,5.10
2023-01-23T07:05:56.366Z,4.50
2023-01-23T07:06:27.288Z,4.80
2023-01-23T07:06:58.395Z,4.20
2023-01-23T07:07:28.904Z,5.30
2023-01-23T07:07:59.322Z,5.00
2023-01-23T07:08:30.310Z,4.80
2023-01-23T07:09:01.275Z,4.90
2023-01-23T07:09:32.274Z,4.10
2023-01-23T07:10:03.381Z,5.00
2023-01-23T07:10:33.843Z,5.20
2023-01-23T07:11:04.778Z,5.30
2023-01-23T07:11:35.788Z,5.40
2023-01-23T07:12:06.776Z,5.40
2023-01-23T07:12:37.750Z,4.10
2023-01-23T07:13:08.865Z,4.70
2023-01-23T07:13:39.357Z,5.50
2023-01-23T07:14:10.435Z,5.10
2023-01-23T07:14:40.853Z,4.70
2023-01-23T07:15:11.839Z,4.60
2023-01-23T07:17:04.784Z,4.90
2023-01-23T07:17:35.783Z,5.20
2023-01-23T07:18:06.766Z,5.60
2023-01-23T07:18:37.217Z,5.70
2023-01-23T07:19:08.126Z,4.90
2023-01-23T07:19:39.251Z,4.60
2023-01-23T07:20:09.743Z,5.40
2023-01-23T07:20:40.720Z,5.20
2023-01-23T07:21:11.660Z,4.90
2023-01-23T07:21:42.681Z,4.60
2023-01-23T07:22:13.090Z,4.60
2023-01-23T07:22:44.283Z,4.60
2023-01-23T07:23:14.761Z,5.20
2023-01-23T07:23:45.738Z,4.80
2023-01-23T07:24:16.661Z,4.60
2023-01-23T07:24:47.571Z,5.20
2023-01-23T07:25:18.542Z,4.90
2023-01-23T07:25:49.729Z,4.60
2023-01-23T07:26:20.217Z,5.00
2023-01-23T07:26:51.132Z,4.90
2023-01-23T07:27:22.042Z,4.70
2023-01-23T07:27:52.926Z,4.70
2023-01-23T07:28:23.882Z,4.80
2023-01-23T07:28:55.068Z,4.70
2023-01-23T07:29:25.698Z,4.50
2023-01-23T07:29:56.115Z,4.80
2023-01-23T07:30:27.144Z,4.50
2023-01-23T07:30:57.836Z,4.80
2023-01-23T07:31:28.582Z,5.00
2023-01-23T07:31:59.222Z,5.10
2023-01-23T07:32:29.720Z,4.60
2023-01-23T07:33:00.621Z,4.40
2023-01-23T07:33:31.561Z,5.30
2023-01-23T07:35:24.716Z,4.40
2023-01-23T07:35:55.141Z,4.70
2023-01-23T07:37:48.098Z,4.50
2023-01-23T07:38:18.998Z,4.30
2023-01-23T07:38:50.233Z,4.90
2023-01-23T07:39:20.605Z,5.70
2023-01-23T07:39:51.606Z,4.70
2023-01-23T07:41:03.568Z,5.60
2023-01-23T07:41:34.478Z,4.90
2023-01-23T07:42:05.668Z,4.60
2023-01-23T07:42:36.116Z,4.80
2023-01-23T07:43:07.134Z,4.90
2023-01-23T07:43:38.113Z,5.00
2023-01-23T07:44:09.010Z,5.30
2023-01-23T07:44:40.099Z,5.40
2023-01-23T07:45:11.046Z,5.20
2023-01-23T07:45:41.525Z,4.60
2023-01-23T07:46:12.514Z,5.00
2023-01-23T07:47:24.493Z,4.60
2023-01-23T07:47:54.977Z,5.30
2023-01-23T07:48:26.078Z,5.40
2023-01-23T07:48:56.576Z,4.50
2023-01-23T07:49:27.503Z,5.00
2023-01-23T07:49:58.477Z,4.10
2023-01-23T07:50:29.397Z,5.40
2023-01-23T07:51:00.483Z,5.30
2023-01-23T07:51:31.203Z,5.30
2023-01-23T07:52:01.714Z,5.10
2023-01-23T07:52:32.197Z,5.30
2023-01-23T07:53:03.184Z,5.60
2023-01-23T07:57:35.241Z,5.40
2023-01-23T07:58:05.667Z,5.20
2023-01-23T07:58:36.656Z,5.70
2023-01-23T07:59:07.079Z,5.20
2023-01-23T07:59:38.083Z,5.30
2023-01-23T08:00:09.119Z,5.00
2023-01-23T08:00:40.004Z,4.90
2023-01-23T08:01:10.560Z,5.80
2023-01-23T08:01:41.028Z,5.60
2023-01-23T08:02:12.015Z,6.00
2023-01-23T08:02:42.981Z,5.50
2023-01-23T08:03:14.105Z,5.30
2023-01-23T08:03:44.862Z,5.30
2023-01-23T08:04:15.448Z,5.40
2023-01-23T08:04:46.260Z,6.30
2023-01-23T08:05:17.159Z,5.70
2023-01-23T08:05:48.067Z,5.50
2023-01-23T08:06:19.233Z,5.90
2023-01-23T08:06:49.957Z,6.40
2023-01-23T08:07:20.420Z,5.20
2023-01-23T08:08:00.702Z,5.70
2023-01-23T08:08:22.311Z,4.60
2023-01-23T08:08:53.301Z,5.30
2023-01-23T08:09:24.409Z,5.60
2023-01-23T08:09:54.853Z,4.80
2023-01-23T08:10:25.762Z,4.90
2023-01-23T08:10:56.674Z,6.00
2023-01-23T08:11:27.638Z,5.80
2023-01-23T08:11:58.531Z,5.80
2023-01-23T08:12:29.612Z,5.70
2023-01-23T08:13:00.107Z,5.40
2023-01-23T08:13:31.026Z,5.00
2023-01-23T08:14:01.938Z,6.30
2023-01-23T08:14:32.932Z,6.20
2023-01-23T08:15:03.441Z,5.10
2023-01-23T08:15:34.684Z,4.80
2023-01-23T08:16:05.166Z,5.50
2023-01-23T08:16:35.737Z,6.00
2023-01-23T08:17:06.167Z,5.40
2023-01-23T08:17:37.293Z,5.20
2023-01-23T08:18:07.780Z,6.30
2023-01-23T08:18:38.491Z,5.40
2023-01-23T08:19:08.969Z,5.50
2023-01-23T08:19:39.957Z,5.30
2023-01-23T08:20:10.971Z,6.10
2023-01-23T08:20:41.412Z,5.50
2023-01-23T08:21:12.281Z,5.90
2023-01-23T08:21:43.480Z,5.30
2023-01-23T08:22:13.984Z,6.00
2023-01-23T08:22:44.905Z,5.80
2023-01-23T08:23:15.864Z,5.40
2023-01-23T08:23:46.793Z,6.10
2023-01-23T08:24:17.756Z,5.70
2023-01-23T08:24:48.930Z,5.70
2023-01-23T08:25:19.408Z,6.30
2023-01-23T08:25:50.802Z,5.80
2023-01-23T08:26:21.233Z,6.10
2023-01-23T08:26:52.134Z,6.00
2023-01-23T08:27:23.103Z,6.70
2023-01-23T08:27:54.200Z,5.70
2023-01-23T08:28:24.670Z,6.10
2023-01-23T08:28:55.574Z,5.70
2023-01-23T08:29:26.487Z,6.00
2023-01-23T08:29:57.459Z,6.10
2023-01-23T08:30:28.396Z,5.40
2023-01-23T08:30:59.648Z,5.70
2023-01-23T08:31:30.287Z,5.80
2023-01-23T08:32:01.119Z,6.30
2023-01-23T08:32:31.652Z,6.00
2023-01-23T08:33:45.187Z,5.90
2023-01-23T08:34:14.266Z,5.50
2023-01-23T08:34:44.768Z,5.90
2023-01-23T08:35:15.717Z,6.40
2023-01-23T08:35:46.644Z,6.20
2023-01-23T08:36:17.624Z,5.70
2023-01-23T08:36:48.526Z,5.50
2023-01-23T08:37:19.714Z,5.80
2023-01-23T08:37:50.299Z,6.40
2023-01-23T08:38:20.767Z,6.30
2023-01-23T08:38:51.753Z,5.80
2023-01-23T08:39:22.712Z,5.60
2023-01-23T08:39:53.722Z,5.90
2023-01-23T08:40:24.458Z,5.20
2023-01-23T08:40:54.927Z,5.80
2023-01-23T08:41:25.852Z,5.90
2023-01-23T08:41:56.749Z,6.00
2023-01-23T08:42:27.648Z,5.50
2023-01-23T08:42:58.538Z,6.40
2023-01-23T08:43:29.723Z,5.60
2023-01-23T08:44:00.216Z,6.20
2023-01-23T08:44:31.143Z,5.70
2023-01-23T08:45:02.069Z,6.30
2023-01-23T08:45:33.019Z,5.70
2023-01-23T08:46:03.795Z,5.40
2023-01-23T08:46:34.532Z,5.50
2023-01-23T08:47:05.047Z,5.90
2023-01-23T08:47:35.968Z,6.40
2023-01-23T08:48:06.873Z,6.40
2023-01-23T08:48:37.847Z,6.20
2023-01-23T08:49:11.102Z,5.40
2023-01-23T08:49:39.630Z,6.10
2023-01-23T08:50:10.140Z,5.90
2023-01-23T08:50:41.062Z,5.50
2023-01-23T08:51:12.021Z,6.10
2023-01-23T08:51:42.942Z,6.00
2023-01-23T08:52:13.858Z,5.60
2023-01-23T08:52:45.094Z,5.10
2023-01-23T08:53:15.568Z,5.90
2023-01-23T08:53:46.567Z,5.70
2023-01-23T08:54:17.531Z,6.50
2023-01-23T08:54:48.432Z,5.80
2023-01-23T08:55:19.390Z,5.60
2023-01-23T08:55:50.575Z,5.90
2023-01-23T08:56:21.049Z,5.40
2023-01-23T08:56:51.964Z,5.80
2023-01-23T08:57:22.983Z,6.20
2023-01-23T08:57:53.462Z,6.10
2023-01-23T08:58:24.383Z,5.40
2023-01-23T08:58:55.649Z,5.10
2023-01-23T08:59:26.180Z,5.60
2023-01-23T08:59:56.597Z,5.30
2023-01-23T09:00:27.518Z,5.60
2023-01-23T09:00:58.457Z,5.40
2023-01-23T09:01:29.470Z,5.50
2023-01-23T09:02:00.632Z,5.40
2023-01-23T09:02:31.259Z,5.40
2023-01-23T09:03:42.716Z,6.60
2023-01-23T09:04:13.642Z,5.60
2023-01-23T09:04:44.621Z,5.80
2023-01-23T09:05:15.839Z,5.30
2023-01-23T09:05:46.348Z,6.10
2023-01-23T09:06:17.249Z,4.90
2023-01-23T09:06:48.160Z,5.60
2023-01-23T09:07:19.134Z,5.70
2023-01-23T09:07:50.100Z,6.10
2023-01-23T09:08:21.217Z,6.60
2023-01-23T09:08:51.691Z,5.60
2023-01-23T09:09:22.590Z,6.00
2023-01-23T09:09:53.565Z,5.80
2023-01-23T09:10:24.492Z,5.50
2023-01-23T09:10:55.395Z,5.50
2023-01-23T09:11:26.499Z,6.10
2023-01-23T09:11:56.971Z,6.00
2023-01-23T09:12:27.880Z,5.00
2023-01-23T09:12:58.847Z,5.40
2023-01-23T13:56:29.876Z,4.00
2023-01-23T13:57:00.402Z,4.80
2023-01-23T13:57:31.596Z,5.20
2023-01-23T13:58:02.066Z,5.90
2023-01-23T13:58:32.990Z,5.20
2023-01-23T13:59:03.965Z,5.50
2023-01-23T13:59:34.884Z,6.10
2023-01-23T14:00:05.844Z,6.40
2023-01-23T14:00:37.095Z,5.70
2023-01-23T14:01:07.573Z,6.30
2023-01-23T14:01:38.531Z,5.40
2023-01-23T14:02:09.536Z,6.60
2023-01-23T14:02:40.033Z,6.00
2023-01-23T14:03:11.006Z,5.50
2023-01-23T14:03:42.130Z,5.50
2023-01-23T14:04:12.855Z,6.10
2023-01-23T14:04:43.303Z,6.00
2023-01-23T14:05:55.202Z,5.80
2023-01-23T14:06:26.200Z,6.00
2023-01-23T14:06:57.116Z,6.00
2023-01-23T14:07:28.116Z,5.90
2023-01-23T14:07:58.625Z,5.30
2023-01-23T14:08:29.278Z,5.00
2023-01-23T14:08:59.745Z,6.40
2023-01-23T14:09:30.662Z,5.00
2023-01-23T14:10:01.577Z,4.80
2023-01-23T14:10:32.533Z,5.00
2023-01-23T14:11:03.498Z,5.20
2023-01-23T14:11:34.623Z,5.40
2023-01-23T14:12:05.080Z,5.70
2023-01-23T14:12:35.975Z,5.60
2023-01-23T14:13:06.971Z,5.00
2023-01-23T14:13:37.973Z,5.70
2023-01-23T14:14:08.872Z,4.90
2023-01-23T14:14:40.051Z,6.10
2023-01-23T14:15:10.517Z,5.80
2023-01-23T14:15:41.408Z,5.40
2023-01-23T14:16:12.399Z,5.60
2023-01-23T14:16:43.296Z,5.10
2023-01-23T14:17:14.411Z,5.50
2023-01-23T14:17:45.118Z,4.80
2023-01-23T14:18:15.616Z,5.00
2023-01-23T14:18:46.216Z,4.90
2023-01-23T14:19:16.649Z,5.20
2023-01-23T14:19:47.544Z,5.00
2023-01-23T14:20:18.523Z,5.10
2023-01-23T14:20:49.697Z,5.70
2023-01-23T14:21:20.876Z,5.20
2023-01-23T14:21:50.849Z,4.70
2023-01-23T14:22:21.758Z,4.80
2023-01-23T14:22:52.673Z,5.00
2023-01-23T14:23:23.778Z,5.30
2023-01-23T14:23:54.609Z,5.10
2023-01-23T14:24:25.098Z,5.30
2023-01-23T14:24:55.542Z,4.90
2023-01-23T14:25:26.740Z,4.90
2023-01-23T14:25:57.387Z,5.00
2023-01-23T14:26:27.893Z,5.10
2023-01-23T14:27:02.433Z,5.60
2023-01-23T14:27:31.005Z,4.30
2023-01-23T14:28:00.196Z,4.80
2023-01-23T14:28:31.123Z,5.50
2023-01-23T14:29:02.028Z,5.50
2023-01-23T14:29:33.203Z,4.90
2023-01-23T14:30:03.695Z,5.10
2023-01-23T14:30:34.160Z,4.80
2023-01-23T14:31:05.189Z,5.80
2023-01-23T14:31:35.743Z,4.90
2023-01-23T14:32:06.511Z,5.30
2023-01-23T14:32:37.165Z,4.70
2023-01-23T14:33:07.610Z,4.70
2023-01-23T14:33:38.913Z,6.00
2023-01-23T14:34:10.914Z,5.20
2023-01-23T14:37:56.943Z,4.80
2023-01-23T14:38:27.953Z,4.70
2023-01-23T14:38:58.595Z,5.00
2023-01-23T14:39:29.521Z,4.70
2023-01-23T14:40:09.775Z,5.20
2023-01-23T14:40:46.612Z,5.00
2023-01-23T14:41:02.024Z,5.70
2023-01-23T14:41:35.050Z,4.50
2023-01-23T14:42:05.336Z,4.90
2023-01-23T14:42:34.583Z,4.90
2023-01-23T14:43:05.542Z,5.40
2023-01-23T14:43:36.560Z,4.70
2023-01-23T14:44:07.021Z,5.10
2023-01-23T14:44:38.099Z,4.30
2023-01-23T14:45:08.748Z,5.00
2023-01-23T14:45:39.184Z,5.50
2023-01-23T14:46:10.206Z,5.10
2023-01-23T14:46:41.211Z,4.70
2023-01-23T14:47:11.738Z,4.30
2023-01-23T14:47:43.026Z,5.20
2023-01-23T14:48:13.716Z,5.30
2023-01-23T14:48:44.201Z,4.60
2023-01-23T14:49:14.723Z,4.90
2023-01-23T14:49:45.704Z,4.60
2023-01-23T14:50:16.638Z,4.60
2023-01-23T14:50:47.138Z,4.10
2023-01-23T14:51:19.635Z,5.00
2023-01-23T14:51:48.897Z,4.50
2023-01-23T14:52:19.788Z,3.90
2023-01-23T14:52:51.184Z,4.40
2023-01-23T14:53:21.682Z,4.60
2023-01-23T14:53:52.656Z,4.80
2023-01-23T14:54:25.223Z,4.90
2023-01-23T14:54:55.447Z,4.20
2023-01-23T14:55:29.861Z,4.50
2023-01-23T14:55:56.769Z,4.90
2023-01-23T14:56:27.448Z,5.40
2023-01-23T14:56:57.633Z,4.30
2023-01-23T14:57:28.138Z,4.60
2023-01-23T14:57:59.450Z,4.70
2023-01-23T14:58:29.928Z,5.10
2023-01-23T14:59:00.592Z,4.90